sensor_id;sensor_type;location;lat;lon;timestamp;pressure;altitude;pressure_sealevel;temperature;humidity
1736;BME280;865;53.672;10.250;2023-09-19T00:02:20;99641.94;;;15.89;100.00
1736;BME280;865;53.672;10.250;2023-09-19T00:04:46;99650.50;;;15.92;100.00
1736;BME280;865;53.672;10.250;2023-09-19T00:07:14;99649.84;;;15.89;100.00
1736;BME280;865;53.672;10.250;2023-09-19T00:09:42;99651.34;;;15.93;100.00
1736;BME280;865;53.672;10.250;2023-09-19T00:12:10;99649.47;;;15.95;100.00
1736;BME280;865;53.672;10.250;2023-09-19T00:14:36;99655.72;;;15.78;100.00
1736;BME280;865;53.672;10.250;2023-09-19T00:17:03;99647.47;;;15.84;100.00
1736;BME280;865;53.672;10.250;2023-09-19T00:19:35;99653.56;;;15.85;100.00
1736;BME280;865;53.672;10.250;2023-09-19T00:22:02;99636.75;;;15.87;100.00
1736;BME280;865;53.672;10.250;2023-09-19T00:24:28;99643.34;;;15.80;100.00
1736;BME280;865;53.672;10.250;2023-09-19T00:26:55;99637.84;;;15.69;100.00
1736;BME280;865;53.672;10.250;2023-09-19T00:29:21;99625.97;;;15.62;100.00
1736;BME280;865;53.672;10.250;2023-09-19T00:31:49;99626.66;;;15.65;100.00
1736;BME280;865;53.672;10.250;2023-09-19T00:34:16;99624.09;;;15.64;100.00
1736;BME280;865;53.672;10.250;2023-09-19T00:36:43;99634.44;;;15.67;100.00
1736;BME280;865;53.672;10.250;2023-09-19T00:39:09;99646.69;;;15.68;100.00
1736;BME280;865;53.672;10.250;2023-09-19T00:41:36;99645.81;;;15.67;100.00
1736;BME280;865;53.672;10.250;2023-09-19T00:44:03;99645.88;;;15.66;100.00
1736;BME280;865;53.672;10.250;2023-09-19T00:46:31;99643.25;;;15.66;100.00
1736;BME280;865;53.672;10.250;2023-09-19T00:48:58;99644.78;;;15.70;100.00
1736;BME280;865;53.672;10.250;2023-09-19T00:51:26;99644.94;;;15.67;100.00
1736;BME280;865;53.672;10.250;2023-09-19T00:53:53;99642.41;;;15.65;100.00
1736;BME280;865;53.672;10.250;2023-09-19T00:56:20;99637.94;;;15.67;100.00
1736;BME280;865;53.672;10.250;2023-09-19T00:58:47;99638.69;;;15.69;100.00
1736;BME280;865;53.672;10.250;2023-09-19T01:01:15;99636.16;;;15.68;100.00
1736;BME280;865;53.672;10.250;2023-09-19T01:03:42;99638.00;;;15.66;100.00
1736;BME280;865;53.672;10.250;2023-09-19T01:06:11;99646.25;;;15.60;100.00
1736;BME280;865;53.672;10.250;2023-09-19T01:08:38;99644.75;;;15.56;100.00
1736;BME280;865;53.672;10.250;2023-09-19T01:11:36;99654.78;;;15.63;100.00
1736;BME280;865;53.672;10.250;2023-09-19T01:14:23;99655.41;;;15.68;100.00
1736;BME280;865;53.672;10.250;2023-09-19T01:17:07;99659.28;;;15.77;100.00
1736;BME280;865;53.672;10.250;2023-09-19T01:22:21;99656.47;;;15.80;100.00
1736;BME280;865;53.672;10.250;2023-09-19T01:25:12;99661.75;;;15.80;100.00
1736;BME280;865;53.672;10.250;2023-09-19T01:27:53;99667.88;;;15.65;100.00
1736;BME280;865;53.672;10.250;2023-09-19T01:30:32;99669.22;;;15.72;100.00
1736;BME280;865;53.672;10.250;2023-09-19T01:32:59;99667.88;;;15.65;100.00
1736;BME280;865;53.672;10.250;2023-09-19T01:35:26;99670.38;;;15.66;100.00
1736;BME280;865;53.672;10.250;2023-09-19T01:37:52;99671.59;;;15.61;100.00
1736;BME280;865;53.672;10.250;2023-09-19T01:40:21;99663.19;;;15.70;100.00
1736;BME280;865;53.672;10.250;2023-09-19T01:43:05;99677.88;;;15.58;100.00
1736;BME280;865;53.672;10.250;2023-09-19T01:45:52;99672.13;;;15.52;100.00
1736;BME280;865;53.672;10.250;2023-09-19T01:48:41;99672.19;;;15.66;100.00
1736;BME280;865;53.672;10.250;2023-09-19T01:51:10;99679.28;;;15.64;100.00
1736;BME280;865;53.672;10.250;2023-09-19T01:53:45;99662.97;;;15.59;100.00
1736;BME280;865;53.672;10.250;2023-09-19T01:56:25;99674.50;;;15.56;100.00
1736;BME280;865;53.672;10.250;2023-09-19T01:58:56;99680.31;;;15.61;100.00
1736;BME280;865;53.672;10.250;2023-09-19T02:01:26;99685.25;;;15.52;100.00
1736;BME280;865;53.672;10.250;2023-09-19T02:03:54;99697.47;;;15.53;100.00
1736;BME280;865;53.672;10.250;2023-09-19T02:06:22;99709.69;;;15.54;100.00
1736;BME280;865;53.672;10.250;2023-09-19T02:08:51;99727.56;;;15.63;100.00
1736;BME280;865;53.672;10.250;2023-09-19T02:11:17;99731.88;;;15.64;100.00
1736;BME280;865;53.672;10.250;2023-09-19T02:13:44;99737.31;;;15.61;100.00
1736;BME280;865;53.672;10.250;2023-09-19T02:16:11;99743.16;;;15.66;100.00
1736;BME280;865;53.672;10.250;2023-09-19T02:18:39;99742.16;;;15.53;100.00
1736;BME280;865;53.672;10.250;2023-09-19T02:21:06;99741.75;;;15.44;100.00
1736;BME280;865;53.672;10.250;2023-09-19T02:23:38;99763.28;;;15.35;100.00
1736;BME280;865;53.672;10.250;2023-09-19T02:26:05;99784.16;;;15.38;100.00
1736;BME280;865;53.672;10.250;2023-09-19T02:28:32;99802.38;;;15.41;100.00
1736;BME280;865;53.672;10.250;2023-09-19T02:30:59;99811.16;;;15.40;100.00
1736;BME280;865;53.672;10.250;2023-09-19T02:33:25;99818.66;;;15.32;100.00
1736;BME280;865;53.672;10.250;2023-09-19T02:35:56;99826.44;;;15.34;100.00
1736;BME280;865;53.672;10.250;2023-09-19T02:38:26;99818.31;;;15.38;100.00
1736;BME280;865;53.672;10.250;2023-09-19T02:40:52;99827.97;;;15.38;100.00
1736;BME280;865;53.672;10.250;2023-09-19T02:43:19;99818.66;;;15.32;100.00
1736;BME280;865;53.672;10.250;2023-09-19T02:45:46;99822.63;;;15.39;100.00
1736;BME280;865;53.672;10.250;2023-09-19T02:48:21;99821.84;;;15.37;100.00
1736;BME280;865;53.672;10.250;2023-09-19T02:50:51;99823.63;;;15.37;100.00
1736;BME280;865;53.672;10.250;2023-09-19T02:53:18;99824.56;;;15.36;100.00
1736;BME280;865;53.672;10.250;2023-09-19T02:55:46;99820.84;;;15.40;100.00
1736;BME280;865;53.672;10.250;2023-09-19T02:58:13;99831.84;;;15.46;100.00
1736;BME280;865;53.672;10.250;2023-09-19T03:00:41;99843.47;;;15.42;100.00
1736;BME280;865;53.672;10.250;2023-09-19T03:03:09;99831.44;;;15.38;100.00
1736;BME280;865;53.672;10.250;2023-09-19T03:05:35;99826.44;;;15.34;100.00
1736;BME280;865;53.672;10.250;2023-09-19T03:08:05;99822.34;;;15.28;100.00
1736;BME280;865;53.672;10.250;2023-09-19T03:10:32;99810.31;;;15.24;100.00
1736;BME280;865;53.672;10.250;2023-09-19T03:12:59;99808.63;;;15.23;100.00
1736;BME280;865;53.672;10.250;2023-09-19T03:15:28;99818.44;;;15.19;100.00
1736;BME280;865;53.672;10.250;2023-09-19T03:17:55;99818.28;;;15.22;100.00
1736;BME280;865;53.672;10.250;2023-09-19T03:20:22;99811.00;;;15.27;100.00
1736;BME280;865;53.672;10.250;2023-09-19T03:22:48;99821.34;;;15.31;100.00
1736;BME280;865;53.672;10.250;2023-09-19T03:25:15;99809.66;;;15.20;100.00
1736;BME280;865;53.672;10.250;2023-09-19T03:27:44;99823.03;;;15.32;100.00
1736;BME280;865;53.672;10.250;2023-09-19T03:30:11;99831.69;;;15.34;100.00
1736;BME280;865;53.672;10.250;2023-09-19T03:32:44;99838.13;;;15.28;100.00
1736;BME280;865;53.672;10.250;2023-09-19T03:35:12;99838.97;;;15.28;100.00
1736;BME280;865;53.672;10.250;2023-09-19T03:37:41;99846.16;;;15.25;100.00
1736;BME280;865;53.672;10.250;2023-09-19T03:40:11;99849.47;;;15.28;100.00
1736;BME280;865;53.672;10.250;2023-09-19T03:42:41;99854.88;;;15.25;100.00
1736;BME280;865;53.672;10.250;2023-09-19T03:45:08;99865.06;;;15.32;100.00
1736;BME280;865;53.672;10.250;2023-09-19T03:47:39;99868.56;;;15.32;100.00
1736;BME280;865;53.672;10.250;2023-09-19T03:50:08;99880.66;;;15.19;100.00
1736;BME280;865;53.672;10.250;2023-09-19T03:52:37;99878.97;;;15.18;100.00
1736;BME280;865;53.672;10.250;2023-09-19T03:55:04;99891.00;;;15.22;100.00
1736;BME280;865;53.672;10.250;2023-09-19T03:57:31;99884.81;;;15.23;100.00
1736;BME280;865;53.672;10.250;2023-09-19T03:59:58;99894.88;;;15.15;100.00
1736;BME280;865;53.672;10.250;2023-09-19T04:02:24;99897.34;;;15.18;100.00
1736;BME280;865;53.672;10.250;2023-09-19T04:04:51;99896.88;;;15.10;100.00
1736;BME280;865;53.672;10.250;2023-09-19T04:07:19;99912.81;;;15.07;100.00
1736;BME280;865;53.672;10.250;2023-09-19T04:09:49;99910.28;;;15.05;100.00
1736;BME280;865;53.672;10.250;2023-09-19T04:12:15;99933.97;;;15.03;100.00
1736;BME280;865;53.672;10.250;2023-09-19T04:14:43;99940.81;;;14.90;100.00
1736;BME280;865;53.672;10.250;2023-09-19T04:17:09;99944.13;;;14.94;100.00
1736;BME280;865;53.672;10.250;2023-09-19T04:19:37;99943.44;;;14.90;100.00
1736;BME280;865;53.672;10.250;2023-09-19T04:22:04;99960.41;;;14.83;100.00
1736;BME280;865;53.672;10.250;2023-09-19T04:24:30;99959.31;;;14.87;100.00
1736;BME280;865;53.672;10.250;2023-09-19T04:26:58;99956.44;;;14.74;100.00
1736;BME280;865;53.672;10.250;2023-09-19T04:29:25;99963.69;;;14.69;100.00
1736;BME280;865;53.672;10.250;2023-09-19T04:31:56;99967.72;;;14.59;100.00
1736;BME280;865;53.672;10.250;2023-09-19T04:34:23;99982.81;;;14.54;100.00
1736;BME280;865;53.672;10.250;2023-09-19T04:36:50;99992.75;;;14.47;100.00
1736;BME280;865;53.672;10.250;2023-09-19T04:39:17;99989.28;;;14.47;100.00
1736;BME280;865;53.672;10.250;2023-09-19T04:41:44;100014.19;;;14.38;100.00
1736;BME280;865;53.672;10.250;2023-09-19T04:44:12;100022.88;;;14.39;100.00
1736;BME280;865;53.672;10.250;2023-09-19T04:46:40;100018.06;;;14.29;100.00
1736;BME280;865;53.672;10.250;2023-09-19T04:49:06;100022.91;;;14.20;100.00
1736;BME280;865;53.672;10.250;2023-09-19T04:51:33;100036.53;;;14.28;100.00
1736;BME280;865;53.672;10.250;2023-09-19T04:54:00;100032.75;;;14.14;100.00
1736;BME280;865;53.672;10.250;2023-09-19T04:56:27;100041.56;;;14.13;100.00
1736;BME280;865;53.672;10.250;2023-09-19T04:58:54;100045.06;;;14.12;100.00
1736;BME280;865;53.672;10.250;2023-09-19T05:01:21;100052.19;;;14.10;100.00
1736;BME280;865;53.672;10.250;2023-09-19T05:03:49;100058.00;;;13.98;100.00
1736;BME280;865;53.672;10.250;2023-09-19T05:06:19;100056.00;;;14.03;100.00
1736;BME280;865;53.672;10.250;2023-09-19T05:08:49;100063.81;;;14.05;100.00
1736;BME280;865;53.672;10.250;2023-09-19T05:11:19;100056.78;;;14.05;100.00
1736;BME280;865;53.672;10.250;2023-09-19T05:13:50;100049.47;;;13.93;100.00
1736;BME280;865;53.672;10.250;2023-09-19T05:16:19;100059.97;;;13.93;100.00
1736;BME280;865;53.672;10.250;2023-09-19T05:18:46;100054.00;;;13.89;100.00
1736;BME280;865;53.672;10.250;2023-09-19T05:21:12;100064.63;;;13.86;100.00
1736;BME280;865;53.672;10.250;2023-09-19T05:23:39;100057.53;;;13.88;100.00
1736;BME280;865;53.672;10.250;2023-09-19T05:26:06;100066.19;;;13.90;100.00
1736;BME280;865;53.672;10.250;2023-09-19T05:28:32;100076.84;;;13.86;100.00
1736;BME280;865;53.672;10.250;2023-09-19T05:31:01;100066.47;;;13.84;100.00
1736;BME280;865;53.672;10.250;2023-09-19T05:33:30;100068.84;;;13.89;100.00
1736;BME280;865;53.672;10.250;2023-09-19T05:36:02;100075.97;;;13.87;100.00
1736;BME280;865;53.672;10.250;2023-09-19T05:38:29;100066.31;;;13.87;100.00
1736;BME280;865;53.672;10.250;2023-09-19T05:40:55;100078.19;;;13.76;100.00
1736;BME280;865;53.672;10.250;2023-09-19T05:43:22;100068.56;;;13.76;100.00
1736;BME280;865;53.672;10.250;2023-09-19T05:45:48;100072.94;;;13.76;100.00
1736;BME280;865;53.672;10.250;2023-09-19T05:48:18;100066.19;;;13.70;100.00
1736;BME280;865;53.672;10.250;2023-09-19T05:50:44;100067.56;;;13.79;100.00
1736;BME280;865;53.672;10.250;2023-09-19T05:53:13;100080.28;;;13.88;100.00
1736;BME280;865;53.672;10.250;2023-09-19T05:55:41;100089.78;;;13.90;100.00
1736;BME280;865;53.672;10.250;2023-09-19T05:58:08;100092.34;;;13.92;100.00
1736;BME280;865;53.672;10.250;2023-09-19T06:00:36;100086.31;;;13.90;100.00
1736;BME280;865;53.672;10.250;2023-09-19T06:03:05;100090.63;;;13.91;100.00
1736;BME280;865;53.672;10.250;2023-09-19T06:05:32;100091.16;;;13.99;100.00
1736;BME280;865;53.672;10.250;2023-09-19T06:07:58;100101.94;;;14.12;100.00
1736;BME280;865;53.672;10.250;2023-09-19T06:10:34;100098.59;;;14.08;100.00
1736;BME280;865;53.672;10.250;2023-09-19T06:13:02;100094.84;;;14.14;100.00
1736;BME280;865;53.672;10.250;2023-09-19T06:15:32;100097.72;;;14.28;100.00
1736;BME280;865;53.672;10.250;2023-09-19T06:17:59;100098.13;;;14.38;100.00
1736;BME280;865;53.672;10.250;2023-09-19T06:20:26;100114.88;;;14.35;100.00
1736;BME280;865;53.672;10.250;2023-09-19T06:22:53;100104.66;;;14.48;100.00
1736;BME280;865;53.672;10.250;2023-09-19T06:25:21;100099.03;;;14.57;100.00
1736;BME280;865;53.672;10.250;2023-09-19T06:27:50;100096.88;;;14.66;100.00
1736;BME280;865;53.672;10.250;2023-09-19T06:30:18;100123.28;;;14.63;100.00
1736;BME280;865;53.672;10.250;2023-09-19T06:32:45;100119.03;;;14.60;100.00
1736;BME280;865;53.672;10.250;2023-09-19T06:35:14;100124.28;;;14.60;100.00
1736;BME280;865;53.672;10.250;2023-09-19T06:37:42;100125.19;;;14.59;100.00
1736;BME280;865;53.672;10.250;2023-09-19T06:40:11;100115.78;;;14.55;100.00
1736;BME280;865;53.672;10.250;2023-09-19T06:42:45;100131.38;;;14.58;100.00
1736;BME280;865;53.672;10.250;2023-09-19T06:45:13;100137.41;;;14.60;100.00
1736;BME280;865;53.672;10.250;2023-09-19T06:47:47;100141.22;;;14.72;100.00
1736;BME280;865;53.672;10.250;2023-09-19T06:50:20;100136.13;;;14.69;100.00
1736;BME280;865;53.672;10.250;2023-09-19T06:52:50;100136.28;;;14.85;100.00
1736;BME280;865;53.672;10.250;2023-09-19T06:55:19;100138.03;;;14.84;100.00
1736;BME280;865;53.672;10.250;2023-09-19T06:57:47;100138.31;;;14.78;100.00
1736;BME280;865;53.672;10.250;2023-09-19T07:00:15;100138.16;;;14.81;100.00
1736;BME280;865;53.672;10.250;2023-09-19T07:02:54;100131.63;;;14.90;100.00
1736;BME280;865;53.672;10.250;2023-09-19T07:05:20;100157.28;;;14.85;100.00
1736;BME280;865;53.672;10.250;2023-09-19T07:07:47;100157.69;;;14.94;100.00
1736;BME280;865;53.672;10.250;2023-09-19T07:10:14;100152.78;;;15.06;100.00
1736;BME280;865;53.672;10.250;2023-09-19T07:12:41;100181.75;;;15.04;100.00
1736;BME280;865;53.672;10.250;2023-09-19T07:15:08;100179.91;;;14.87;100.00
1736;BME280;865;53.672;10.250;2023-09-19T07:17:35;100184.75;;;14.96;100.00
1736;BME280;865;53.672;10.250;2023-09-19T07:20:03;100179.50;;;14.96;100.00
1736;BME280;865;53.672;10.250;2023-09-19T07:22:34;100185.31;;;15.03;100.00
1736;BME280;865;53.672;10.250;2023-09-19T07:25:03;100174.50;;;15.09;100.00
1736;BME280;865;53.672;10.250;2023-09-19T07:27:29;100184.41;;;15.21;100.00
1736;BME280;865;53.672;10.250;2023-09-19T07:29:56;100181.94;;;15.18;100.00
1736;BME280;865;53.672;10.250;2023-09-19T07:32:22;100185.16;;;15.06;100.00
1736;BME280;865;53.672;10.250;2023-09-19T07:34:50;100186.69;;;15.10;100.00
1736;BME280;865;53.672;10.250;2023-09-19T07:37:17;100174.50;;;15.09;100.00
1736;BME280;865;53.672;10.250;2023-09-19T07:39:43;100189.41;;;15.09;100.00
1736;BME280;865;53.672;10.250;2023-09-19T07:42:11;100204.88;;;15.15;100.00
1736;BME280;865;53.672;10.250;2023-09-19T07:44:44;100201.19;;;15.19;100.00
1736;BME280;865;53.672;10.250;2023-09-19T07:47:14;100189.81;;;15.18;100.00
1736;BME280;865;53.672;10.250;2023-09-19T07:49:41;100200.13;;;15.23;100.00
1736;BME280;865;53.672;10.250;2023-09-19T07:52:09;100194.63;;;15.27;100.00
1736;BME280;865;53.672;10.250;2023-09-19T07:54:36;100210.56;;;15.24;100.00
1736;BME280;865;53.672;10.250;2023-09-19T07:57:03;100210.91;;;15.17;100.00
1736;BME280;865;53.672;10.250;2023-09-19T07:59:30;100202.56;;;15.09;100.00
1736;BME280;865;53.672;10.250;2023-09-19T08:01:56;100210.00;;;14.99;100.00
1736;BME280;865;53.672;10.250;2023-09-19T08:04:24;100207.59;;;14.94;100.00
1736;BME280;865;53.672;10.250;2023-09-19T08:06:52;100209.28;;;14.95;100.00
1736;BME280;865;53.672;10.250;2023-09-19T08:09:19;100195.94;;;14.81;100.00
1736;BME280;865;53.672;10.250;2023-09-19T08:11:50;100185.84;;;14.72;100.00
1736;BME280;865;53.672;10.250;2023-09-19T08:14:19;100191.25;;;14.69;100.00
1736;BME280;865;53.672;10.250;2023-09-19T08:16:46;100200.34;;;14.62;100.00
1736;BME280;865;53.672;10.250;2023-09-19T08:19:13;100200.91;;;14.68;100.00
1736;BME280;865;53.672;10.250;2023-09-19T08:21:41;100202.31;;;14.56;100.00
1736;BME280;865;53.672;10.250;2023-09-19T08:24:12;100193.41;;;14.61;100.00
1736;BME280;865;53.672;10.250;2023-09-19T08:26:38;100206.25;;;14.67;100.00
1736;BME280;865;53.672;10.250;2023-09-19T08:29:05;100207.47;;;14.78;100.00
1736;BME280;865;53.672;10.250;2023-09-19T08:31:36;100200.91;;;14.68;100.00
1736;BME280;865;53.672;10.250;2023-09-19T08:34:04;100200.34;;;14.62;100.00
1736;BME280;865;53.672;10.250;2023-09-19T08:36:30;100193.59;;;14.75;100.00
1736;BME280;865;53.672;10.250;2023-09-19T08:38:57;100198.00;;;14.74;100.00
1736;BME280;865;53.672;10.250;2023-09-19T08:41:23;100197.16;;;14.74;100.00
1736;BME280;865;53.672;10.250;2023-09-19T08:43:50;100206.59;;;14.78;100.00
1736;BME280;865;53.672;10.250;2023-09-19T08:46:18;100194.91;;;14.85;100.00
1736;BME280;865;53.672;10.250;2023-09-19T08:49:03;100200.78;;;14.90;100.00
1736;BME280;865;53.672;10.250;2023-09-19T08:51:35;100189.56;;;15.06;100.00
1736;BME280;865;53.672;10.250;2023-09-19T08:54:07;100198.78;;;14.95;100.00
1736;BME280;865;53.672;10.250;2023-09-19T08:56:34;100208.28;;;14.98;100.00
1736;BME280;865;53.672;10.250;2023-09-19T08:59:03;100196.81;;;15.00;100.00
1736;BME280;865;53.672;10.250;2023-09-19T09:01:36;100203.88;;;14.98;100.00
1736;BME280;865;53.672;10.250;2023-09-19T09:04:08;100211.63;;;15.01;100.00
1736;BME280;865;53.672;10.250;2023-09-19T09:06:35;100213.97;;;15.08;100.00
1736;BME280;865;53.672;10.250;2023-09-19T09:09:02;100213.47;;;15.18;100.00
1736;BME280;865;53.672;10.250;2023-09-19T09:11:33;100216.31;;;15.14;100.00
1736;BME280;865;53.672;10.250;2023-09-19T09:14:00;100233.09;;;15.11;100.00
1736;BME280;865;53.672;10.250;2023-09-19T09:16:29;100235.75;;;15.28;100.00
1736;BME280;865;53.672;10.250;2023-09-19T09:18:57;100235.13;;;15.23;100.00
1736;BME280;865;53.672;10.250;2023-09-19T09:21:25;100249.75;;;15.29;100.00
1736;BME280;865;53.672;10.250;2023-09-19T09:23:55;100247.03;;;15.31;100.00
1736;BME280;865;53.672;10.250;2023-09-19T09:26:41;100251.47;;;15.30;100.00
1736;BME280;865;53.672;10.250;2023-09-19T09:29:09;100255.72;;;15.33;100.00
1736;BME280;865;53.672;10.250;2023-09-19T09:31:35;100248.47;;;15.38;100.00
1736;BME280;865;53.672;10.250;2023-09-19T09:34:02;100248.19;;;15.44;100.00
1736;BME280;865;53.672;10.250;2023-09-19T09:36:37;100264.66;;;15.47;100.00
1736;BME280;865;53.672;10.250;2023-09-19T09:39:04;100267.13;;;15.50;100.00
1736;BME280;865;53.672;10.250;2023-09-19T09:41:59;100266.91;;;15.55;100.00
1736;BME280;865;53.672;10.250;2023-09-19T09:44:26;100252.13;;;15.71;100.00
1736;BME280;865;53.672;10.250;2023-09-19T09:46:58;100252.22;;;15.87;100.00
1736;BME280;865;53.672;10.250;2023-09-19T09:49:47;100264.84;;;15.98;100.00
1736;BME280;865;53.672;10.250;2023-09-19T09:52:21;100267.25;;;16.03;100.00
1736;BME280;865;53.672;10.250;2023-09-19T09:55:00;100274.66;;;16.12;100.00
1736;BME280;865;53.672;10.250;2023-09-19T09:57:33;100271.50;;;16.23;100.00
1736;BME280;865;53.672;10.250;2023-09-19T10:00:00;100258.41;;;16.38;100.00
1736;BME280;865;53.672;10.250;2023-09-19T10:02:39;100260.94;;;16.57;100.00
1736;BME280;865;53.672;10.250;2023-09-19T10:05:19;100271.88;;;16.50;100.00
1736;BME280;865;53.672;10.250;2023-09-19T10:07:50;100267.28;;;16.53;100.00
1736;BME280;865;53.672;10.250;2023-09-19T10:10:39;100266.56;;;16.67;100.00
1736;BME280;865;53.672;10.250;2023-09-19T10:13:08;100271.53;;;16.73;100.00
1736;BME280;865;53.672;10.250;2023-09-19T10:15:39;100278.19;;;16.80;100.00
1736;BME280;865;53.672;10.250;2023-09-19T10:18:14;100277.19;;;16.66;100.00
1736;BME280;865;53.672;10.250;2023-09-19T10:20:45;100278.91;;;16.67;100.00
1736;BME280;865;53.672;10.250;2023-09-19T10:23:12;100275.38;;;16.83;100.00
1736;BME280;865;53.672;10.250;2023-09-19T10:25:41;100274.94;;;16.75;100.00
1736;BME280;865;53.672;10.250;2023-09-19T10:28:10;100284.16;;;16.67;100.00
1736;BME280;865;53.672;10.250;2023-09-19T10:30:47;100278.13;;;16.82;100.00
1736;BME280;865;53.672;10.250;2023-09-19T10:33:17;100282.66;;;16.96;100.00
1736;BME280;865;53.672;10.250;2023-09-19T10:35:47;100285.31;;;16.96;100.00
1736;BME280;865;53.672;10.250;2023-09-19T10:38:19;100273.59;;;17.01;100.00
1736;BME280;865;53.672;10.250;2023-09-19T10:40:52;100270.00;;;17.02;100.00
1736;BME280;865;53.672;10.250;2023-09-19T10:43:21;100277.56;;;17.08;100.00
1736;BME280;865;53.672;10.250;2023-09-19T10:45:50;100260.75;;;17.11;100.00
1736;BME280;865;53.672;10.250;2023-09-19T10:48:19;100282.09;;;17.22;100.00
1736;BME280;865;53.672;10.250;2023-09-19T10:53:50;100278.13;;;16.98;100.00
1736;BME280;865;53.672;10.250;2023-09-19T10:56:24;100278.06;;;16.99;100.00
1736;BME280;865;53.672;10.250;2023-09-19T10:59:08;100273.03;;;16.95;100.00
1736;BME280;865;53.672;10.250;2023-09-19T11:04:29;100279.88;;;16.99;100.00
1736;BME280;865;53.672;10.250;2023-09-19T11:07:10;100275.00;;;17.07;100.00
1736;BME280;865;53.672;10.250;2023-09-19T11:09:57;100275.28;;;17.18;100.00
1736;BME280;865;53.672;10.250;2023-09-19T11:14:59;100283.78;;;17.23;100.00
1736;BME280;865;53.672;10.250;2023-09-19T11:17:36;100279.31;;;17.25;100.00
1736;BME280;865;53.672;10.250;2023-09-19T11:30:46;100277.94;;;17.34;100.00
1736;BME280;865;53.672;10.250;2023-09-19T11:36:07;100285.22;;;17.13;100.00
1736;BME280;865;53.672;10.250;2023-09-19T11:46:27;100272.91;;;17.14;100.00
1736;BME280;865;53.672;10.250;2023-09-19T11:48:55;100273.69;;;17.47;100.00
1736;BME280;865;53.672;10.250;2023-09-19T11:51:40;100249.56;;;17.69;100.00
1736;BME280;865;53.672;10.250;2023-09-19T11:54:11;100248.56;;;17.56;100.00
1736;BME280;865;53.672;10.250;2023-09-19T11:56:47;100272.22;;;17.42;100.00
1736;BME280;865;53.672;10.250;2023-09-19T11:59:29;100278.97;;;17.31;100.00
1736;BME280;865;53.672;10.250;2023-09-19T12:01:59;100260.69;;;17.28;100.00
1736;BME280;865;53.672;10.250;2023-09-19T12:04:34;100264.50;;;17.23;100.00
1736;BME280;865;53.672;10.250;2023-09-19T12:07:10;100271.72;;;17.35;100.00
1736;BME280;865;53.672;10.250;2023-09-19T12:09:47;100272.25;;;17.26;100.00
1736;BME280;865;53.672;10.250;2023-09-19T12:12:24;100269.94;;;17.36;100.00
1736;BME280;865;53.672;10.250;2023-09-19T12:14:54;100264.31;;;17.42;100.00
1736;BME280;865;53.672;10.250;2023-09-19T12:17:21;100265.78;;;17.31;100.00
1736;BME280;865;53.672;10.250;2023-09-19T12:19:51;100263.38;;;17.43;100.00
1736;BME280;865;53.672;10.250;2023-09-19T12:22:19;100262.72;;;17.55;100.00
1736;BME280;865;53.672;10.250;2023-09-19T12:24:47;100271.38;;;17.57;100.00
1736;BME280;865;53.672;10.250;2023-09-19T12:27:15;100266.63;;;17.32;100.00
1736;BME280;865;53.672;10.250;2023-09-19T12:29:48;100265.94;;;17.28;100.00
1736;BME280;865;53.672;10.250;2023-09-19T12:32:16;100276.31;;;17.31;100.00
1736;BME280;865;53.672;10.250;2023-09-19T12:34:50;100274.59;;;17.30;100.00
1736;BME280;865;53.672;10.250;2023-09-19T12:37:19;100260.75;;;17.27;100.00
1736;BME280;865;53.672;10.250;2023-09-19T12:39:51;100269.66;;;17.24;100.00
1736;BME280;865;53.672;10.250;2023-09-19T12:42:22;100267.91;;;17.41;100.00
1736;BME280;865;53.672;10.250;2023-09-19T12:44:51;100268.66;;;17.43;100.00
1736;BME280;865;53.672;10.250;2023-09-19T12:47:28;100270.78;;;17.68;100.00
1736;BME280;865;53.672;10.250;2023-09-19T12:52:46;100263.53;;;17.87;100.00
1736;BME280;865;53.672;10.250;2023-09-19T12:55:30;100258.19;;;17.73;100.00
1736;BME280;865;53.672;10.250;2023-09-19T12:58:09;100255.53;;;17.73;100.00
1736;BME280;865;53.672;10.250;2023-09-19T13:00:39;100259.03;;;17.73;100.00
1736;BME280;865;53.672;10.250;2023-09-19T13:03:17;100254.09;;;17.51;100.00
1736;BME280;865;53.672;10.250;2023-09-19T13:05:57;100261.59;;;17.59;100.00
1736;BME280;865;53.672;10.250;2023-09-19T13:08:26;100250.63;;;17.67;100.00
1736;BME280;865;53.672;10.250;2023-09-19T13:11:17;100238.19;;;17.53;100.00
1736;BME280;865;53.672;10.250;2023-09-19T13:17:01;100251.03;;;17.59;100.00
1736;BME280;865;53.672;10.250;2023-09-19T13:19:44;100252.91;;;17.57;100.00
1736;BME280;865;53.672;10.250;2023-09-19T13:25:14;100235.53;;;17.69;100.00
1736;BME280;865;53.672;10.250;2023-09-19T13:27:43;100230.59;;;17.79;100.00
1736;BME280;865;53.672;10.250;2023-09-19T13:30:12;100230.81;;;17.90;100.00
1736;BME280;865;53.672;10.250;2023-09-19T13:32:38;100228.59;;;17.98;100.00
1736;BME280;865;53.672;10.250;2023-09-19T13:35:07;100227.28;;;18.05;100.00
1736;BME280;865;53.672;10.250;2023-09-19T13:37:38;100226.19;;;18.09;100.00
1736;BME280;865;53.672;10.250;2023-09-19T13:40:13;100227.09;;;17.94;100.00
1736;BME280;865;53.672;10.250;2023-09-19T13:42:41;100228.28;;;17.88;100.00
1736;BME280;865;53.672;10.250;2023-09-19T13:45:08;100222.59;;;17.80;100.00
1736;BME280;865;53.672;10.250;2023-09-19T13:47:38;100218.69;;;17.71;100.00
1736;BME280;865;53.672;10.250;2023-09-19T13:50:05;100211.91;;;17.67;100.00
1736;BME280;865;53.672;10.250;2023-09-19T13:52:33;100213.94;;;17.62;100.00
1736;BME280;865;53.672;10.250;2023-09-19T13:55:00;100205.84;;;17.65;100.00
1736;BME280;865;53.672;10.250;2023-09-19T13:57:26;100210.28;;;17.65;100.00
1736;BME280;865;53.672;10.250;2023-09-19T13:59:53;100214.53;;;17.67;100.00
1736;BME280;865;53.672;10.250;2023-09-19T14:02:21;100211.38;;;17.61;100.00